Time;durP1;ratioP1;P1;durP2;ratioP2;P2;SDS_P1;SDS_P2;PMS_P1;PMS_P2;Temp;Humidity;BMP_temperature;BMP_pressure;BME280_temperature;BME280_humidity;BME280_pressure;Samples;Min_cycle;Max_cycle;Signal;HPM_P1;HPM_P2
2023/04/23 00:02:51;;;;;;;35.38;20.98;;;;;;;8.88;58.54;99659.44;31100114;28;96710;-62
2023/04/23 00:17:52;;;;;;;26.57;17.90;;;;;;;8.64;59.17;99653.22;31113825;28;96665;-62
2023/04/23 00:32:52;;;;;;;27.20;18.27;;;;;;;8.41;60.43;99642.47;31120927;28;96577;-63
2023/04/23 00:47:53;;;;;;;32.92;20.17;;;;;;;8.27;61.04;99635.22;31117392;28;96829;-62
2023/04/23 01:02:53;;;;;;;29.00;17.67;;;;;;;8.13;61.20;99629.59;31117191;28;96568;-62
2023/04/23 01:17:56;;;;;;;29.08;18.63;;;;;;;7.95;61.52;99634.25;31116581;28;97310;-63
2023/04/23 01:32:57;;;;;;;27.20;16.63;;;;;;;7.78;62.84;99633.44;31114641;28;97306;-62
2023/04/23 01:47:59;;;;;;;29.33;16.40;;;;;;;7.61;62.79;99616.69;31113236;28;96782;-63
2023/04/23 02:02:59;;;;;;;25.47;17.30;;;;;;;7.43;63.27;99609.69;31093364;28;98346;-63
2023/04/23 02:17:59;;;;;;;25.05;15.40;;;;;;;7.30;63.77;99606.72;31091456;28;110353;-63
2023/04/23 02:33:00;;;;;;;29.50;17.60;;;;;;;7.10;64.26;99600.88;31108119;28;97516;-63
2023/04/23 02:48:00;;;;;;;28.88;17.00;;;;;;;6.94;64.77;99599.88;31107901;28;96768;-63
2023/04/23 03:03:00;;;;;;;24.77;15.93;;;;;;;6.81;65.33;99594.19;31106571;28;110146;-63
2023/04/23 03:18:03;;;;;;;25.85;15.68;;;;;;;6.76;65.54;99604.41;31105177;28;97430;-63
2023/04/23 03:33:03;;;;;;;25.47;16.27;;;;;;;6.60;66.13;99590.16;31103222;28;96548;-63
2023/04/23 03:48:03;;;;;;;23.02;15.27;;;;;;;6.53;66.56;99585.63;31099572;28;96795;-63
2023/04/23 04:03:04;;;;;;;23.52;14.88;;;;;;;6.59;66.75;99590.31;31080970;28;97102;-62
2023/04/23 04:18:05;;;;;;;25.17;14.02;;;;;;;6.68;66.88;99591.97;31096897;28;96630;-63
2023/04/23 04:33:06;;;;;;;23.23;14.30;;;;;;;6.91;67.52;99583.44;31097388;28;97681;-62
2023/04/23 04:48:06;;;;;;;17.15;12.98;;;;;;;7.29;66.86;99575.91;31094780;28;97061;-63
2023/04/23 05:03:06;;;;;;;20.88;13.43;;;;;;;7.90;66.45;99572.91;31087425;28;109162;-62
2023/04/23 05:18:09;;;;;;;15.60;11.50;;;;;;;8.58;65.96;99568.13;31113809;28;99112;-62
2023/04/23 05:33:11;;;;;;;20.37;11.47;;;;;;;9.33;64.78;99558.72;31113361;28;96893;-62
2023/04/23 05:48:11;;;;;;;15.70;11.17;;;;;;;10.19;63.91;99553.09;31111182;28;96761;-62
2023/04/23 06:03:12;;;;;;;15.00;10.23;;;;;;;11.00;62.04;99549.63;31109666;28;96717;-63
2023/04/23 06:18:12;;;;;;;20.27;9.65;;;;;;;11.98;60.18;99551.75;31108705;28;96675;-62
2023/04/23 06:33:13;;;;;;;15.20;10.40;;;;;;;12.83;59.61;99554.22;31105943;28;114914;-63
2023/04/23 06:48:13;;;;;;;15.02;10.50;;;;;;;13.77;57.96;99533.78;31104632;28;96872;-64
2023/04/23 07:03:13;;;;;;;18.52;9.27;;;;;;;14.70;55.82;99532.75;31103673;28;112460;-64
2023/04/23 07:18:14;;;;;;;11.13;7.40;;;;;;;15.74;53.47;99520.91;31102853;28;97328;-63
2023/04/23 07:33:14;;;;;;;13.32;8.25;;;;;;;16.90;51.48;99502.25;31101781;28;96596;-64
2023/04/23 07:48:14;;;;;;;9.68;7.10;;;;;;;18.25;49.37;99490.88;31100159;28;100791;-63
2023/04/23 08:03:15;;;;;;;8.40;5.13;;;;;;;19.25;45.71;99489.78;31098147;28;113684;-63
2023/04/23 08:18:15;;;;;;;9.15;5.65;;;;;;;19.95;43.16;99480.31;31097749;28;96848;-63
2023/04/23 08:33:15;;;;;;;8.40;4.13;;;;;;;;;;31098646;28;96840;-63
2023/04/23 08:48:16;;;;;;;7.20;4.33;;;;;;;22.67;37.78;99446.75;31119161;28;96922;-63
2023/04/23 09:03:19;;;;;;;6.83;4.23;;;;;;;23.32;35.39;99434.31;31116539;28;97673;-63
2023/04/23 09:18:20;;;;;;;6.87;2.97;;;;;;;25.58;31.12;99430.69;31113948;28;96701;-63
2023/04/23 09:33:20;;;;;;;6.20;2.92;;;;;;;28.34;26.90;99431.31;31113509;28;97224;-63
2023/04/23 09:48:20;;;;;;;7.25;2.80;;;;;;;36.08;17.65;99448.94;31110008;28;97714;-64
2023/04/23 10:03:26;;;;;;;8.35;3.42;;;;;;;28.49;23.95;99421.94;31109254;28;105276;-63
2023/04/23 10:18:28;;;;;;;6.60;3.40;;;;;;;24.90;29.62;99427.72;31108613;28;96531;-63
2023/04/23 10:33:30;;;;;;;5.90;3.30;;;;;;;22.83;32.30;99421.25;31107452;28;96708;-66
2023/04/23 10:48:50;;;;;;;5.93;3.17;;;;;;;22.26;34.40;99420.31;31105331;28;96735;-62
2023/04/23 11:03:51;;;;;;;6.87;3.47;;;;;;;22.48;34.59;99422.81;31102648;28;96681;-63
2023/04/23 11:19:06;;;;;;;7.27;3.60;;;;;;;22.92;34.60;99416.94;31102055;28;97575;-63
2023/04/23 11:34:08;;;;;;;4.63;3.73;;;;;;;24.04;32.82;99418.94;31101092;28;96689;-63
2023/04/23 11:49:09;;;;;;;6.50;2.93;;;;;;;24.51;32.24;99417.63;31098058;28;96803;-63
2023/04/23 12:04:12;;;;;;;4.95;2.83;;;;;;;24.38;31.81;99410.06;31099421;28;96694;-63
2023/04/23 12:19:18;;;;;;;6.13;3.03;;;;;;;23.51;33.78;99420.19;31118490;28;98585;-63
2023/04/23 12:34:20;;;;;;;4.57;2.97;;;;;;;23.14;34.66;99429.44;31118951;28;97109;-63
2023/04/23 12:49:20;;;;;;;4.50;2.70;;;;;;;23.09;35.06;99445.72;31114891;28;96740;-63
2023/04/23 13:04:20;;;;;;;;;;;;;;;22.51;36.18;99446.72;31116216;28;98913;-62
2023/04/23 13:19:21;;;;;;;5.20;2.90;;;;;;;21.94;38.54;99446.47;31113525;28;96745;-63
2023/04/23 13:34:21;;;;;;;4.17;1.80;;;;;;;21.16;38.66;99449.75;31112179;28;113272;-63
2023/04/23 13:49:21;;;;;;;4.13;2.80;;;;;;;20.46;39.74;99438.75;31110418;28;97208;-63
2023/04/23 14:04:22;;;;;;;7.60;3.77;;;;;;;20.51;40.98;99425.28;31110058;28;97311;-63
2023/04/23 14:19:23;;;;;;;7.97;4.03;;;;;;;20.39;41.97;99430.03;31108565;28;97546;-63
2023/04/23 14:34:23;;;;;;;5.37;3.20;;;;;;;20.00;42.73;99432.81;31107322;28;106581;-62
2023/04/23 14:49:24;;;;;;;6.03;3.40;;;;;;;19.87;42.91;99437.50;31105646;28;97325;-62
2023/04/23 15:04:24;;;;;;;9.68;4.40;;;;;;;19.21;43.71;99435.47;31104015;28;102049;-64
2023/04/23 15:19:24;;;;;;;5.75;2.80;;;;;;;18.54;46.03;99438.88;31102074;28;101571;-63
2023/04/23 15:34:24;;;;;;;4.97;2.42;;;;;;;18.21;46.88;99451.97;31100695;28;96848;-63
2023/04/23 15:49:25;;;;;;;6.15;3.28;;;;;;;17.64;48.99;99441.03;31098695;28;103233;-63
2023/04/23 16:04:25;;;;;;;5.93;3.40;;;;;;;17.42;51.18;99433.53;31099422;28;96733;-62
2023/04/23 16:19:27;;;;;;;6.40;3.78;;;;;;;17.14;51.98;99426.16;31097158;28;114022;-63
2023/04/23 16:34:27;;;;;;;5.43;3.23;;;;;;;16.67;53.92;99429.53;31019359;28;96647;-62
2023/04/23 16:49:27;;;;;;;5.32;3.67;;;;;;;16.53;54.75;99405.50;30958979;28;96929;-61
2023/04/23 17:04:28;;;;;;;6.95;3.25;;;;;;;16.15;56.41;99398.56;30977147;28;97518;-62
2023/04/23 17:19:28;;;;;;;6.18;3.40;;;;;;;15.68;57.45;99395.59;30978797;28;109072;-61
2023/04/23 17:34:29;;;;;;;8.57;3.42;;;;;;;15.35;58.90;99380.63;30976780;28;96687;-62
2023/04/23 17:49:30;;;;;;;4.93;3.07;;;;;;;15.13;59.74;99366.81;30975923;28;98307;-63
2023/04/23 18:04:31;;;;;;;5.07;3.17;;;;;;;15.00;60.28;99362.41;30975488;28;107674;-62
2023/04/23 18:19:31;;;;;;;6.23;3.13;;;;;;;14.96;59.91;99356.63;30976785;28;96779;-62
2023/04/23 18:34:38;;;;;;;5.05;3.08;;;;;;;14.76;60.19;99364.84;30982888;28;97081;-64
2023/04/23 18:49:51;;;;;;;4.57;3.03;;;;;;;14.58;60.80;99357.50;30982080;28;96853;-64
2023/04/23 19:04:51;;;;;;;7.53;3.00;;;;;;;14.43;61.12;99355.13;30978880;28;96716;-61
2023/04/23 19:19:52;;;;;;;6.13;3.92;;;;;;;14.26;61.39;99356.72;30977317;28;96708;-61
2023/04/23 19:34:52;;;;;;;5.60;3.35;;;;;;;14.17;61.86;99346.22;30979241;28;97056;-64
2023/04/23 19:49:52;;;;;;;11.02;7.25;;;;;;;14.11;62.60;99331.03;30976937;28;96795;-64
2023/04/23 20:04:53;;;;;;;8.40;5.47;;;;;;;14.03;62.93;99315.19;30975559;28;105751;-63
2023/04/23 20:19:53;;;;;;;9.68;4.88;;;;;;;14.00;63.19;99289.66;30973399;28;112276;-63
2023/04/23 20:34:54;;;;;;;8.73;5.05;;;;;;;14.04;63.62;99287.38;30985822;28;97008;-62
2023/04/23 20:49:54;;;;;;;11.02;6.30;;;;;;;14.01;63.54;99285.13;30993252;28;97573;-62
2023/04/23 21:04:55;;;;;;;11.70;6.15;;;;;;;13.91;64.08;99268.72;30994156;28;96650;-64
2023/04/23 21:19:55;;;;;;;12.20;7.82;;;;;;;13.73;64.52;99262.22;30992483;28;97159;-60
2023/04/23 21:34:55;;;;;;;10.07;5.88;;;;;;;13.58;64.92;99250.97;30988975;28;96795;-61
2023/04/23 21:49:56;;;;;;;13.55;6.40;;;;;;;13.35;65.44;99229.06;30953371;28;106555;-66
2023/04/23 22:04:57;;;;;;;9.98;5.85;;;;;;;13.02;66.23;99227.25;30863453;28;97576;-67
2023/04/23 22:19:57;;;;;;;11.25;6.03;;;;;;;12.71;66.80;99225.25;30862327;28;96729;-68
2023/04/23 22:34:58;;;;;;;10.27;6.45;;;;;;;12.52;67.53;99208.22;30861560;28;97267;-66
2023/04/23 22:49:58;;;;;;;12.20;6.70;;;;;;;12.24;68.73;99198.59;30859040;28;96751;-67
2023/04/23 23:04:58;;;;;;;10.65;7.57;;;;;;;12.11;69.24;99194.09;30858410;28;96688;-68
2023/04/23 23:19:59;;;;;;;15.82;8.95;;;;;;;12.11;69.87;99170.06;30856172;28;112223;-66
2023/04/23 23:34:59;;;;;;;8.25;6.65;;;;;;;12.07;70.74;99166.16;30856573;28;96614;-68
2023/04/23 23:50:00;;;;;;;14.75;9.07;;;;;;;12.11;71.09;99146.03;30854604;28;97034;-68
